Aérodrome :
LOGIN :

S'inscrire | Disclaimer

   EN    FR    IT 

 










Légende :    VFR   VFR Marginal   IFR   IFR Intensif   IFR Très Intensif
Visi : 
Plafond : 
>= 8 km
>= 3000ft
5 à 8 km
1000 à 3000 ft
1500m à 5 km
500 à 1000 ft
800 à 1500m
200 à 500 ft
< 800m
< 200 ft
Symboles :   Orages  Brouillard  Fortes neiges  Fortes précipitations  Vent > 20 kt
SIGMETs :   Divers  Orages  Givrage  Turbulence  Onde Orograph.  Cendres Volcan.






- Altitude de l'aérodrome : 681 ft
- Code IATA : LBA


EGNM - Leeds Bradford

DERNIER METAR :
  • 120550Z 25019G31KT 9999 -SHRA BKN018 05/03 Q0989

METARs EXPIRÉS :
  • 120520Z 26022G34KT 230V290 9999 -SHRA BKN018 05/03 Q0989
  • 120350Z 25017G29KT 190V280 9999 -SHRA BKN025 05/03 Q0990

TAF TAF EGNM
Valide du 12 à 06h jusqu'au 13 à 06h UTC


120504Z 1206/1306 25015G25KT 9999 FEW009 SCT025
TEMPO 1206/1209 26020G35KT 7000 RA BKN012
PROB30
TEMPO 1206/1209 4000 +RA BKN008
PROB40
TEMPO 1209/1221 31017G27KT BKN012
ATIS : +44 113 250 9696 (x2489)



MET'MAP, la Météo Aéronautique d'un coup d'oeil ! - Copyright ORBIFLY Décembre 2007 - Disclaimer

ORBIFLY MET'MAP TEAM :

Programmation & Développement : Alexandra Zaïnal
Conception & Développement : Baudouin d'Aumeries
Co-Programmation & Développement : Marc-Olivier Méhu
Soutien technique & logistique : Manuel Goepfert

Contact : metmap@orbifly.com




SOURCES & CREDITS :

   NOAA